• Join FlightAware (Why Join?)
  • Login
  • US Flag 
06:31AM EST


 

Airport Tracker/Info


-or-


 

Live Flight TrackerFlight Track Log ✈ SWA407 ✈ 22-Apr-2013 ✈ KSFO - KSAN

Flight Track Log - Related Links

Times and Time Zones

All times are in EDT time to prevent confusion due to time zone crossing. See the SWA407 flight status page for this flight to view local times or setup timezone preferences in your user account.

Time Position Orientation Groundspeed Altitude Reporting Facility
EDT Latitude Longitude Course Direction KTS MPH feet Rate Location/Type
11:49PM 37.6833 -122.4167 310° West 221 254 5,400  Level Northern Cal TRACON
11:50PM 37.6225 -122.4808 220° Southwest 267 307 10,500 3,240 Climbing Oakland Center
11:51PM 37.5308 -122.4936 186° South 324 373 13,400 3,180 Climbing Oakland Center
11:53PM 37.4219 -122.5086 186° South 388 447 17,000 3,420 Climbing Oakland Center
11:54PM 37.3078 -122.5017 177° South 411 473 20,400 3,120 Climbing Oakland Center
11:55PM 37.1881 -122.4919 176° South 429 494 23,400 2,760 Climbing Oakland Center
11:56PM 37.0650 -122.4817 176° South 442 509 26,100 2,400 Climbing Oakland Center
11:57PM 36.9358 -122.4717 176° South 463 533 28,400 2,580 Climbing Oakland Center
11:58PM 36.8064 -122.4611 176° South 466 536 31,400 2,580 Climbing Oakland Center
11:59PM 36.6950 -122.3889 153° Southeast 467 537 33,700 2,280 Climbing Oakland Center
12:00AM 36.5789 -122.2606 138° Southeast 468 539 36,100 2,040 Climbing Oakland Center
12:01AM 36.4797 -122.1556 140° Southeast 469 540 37,900 1,620 Climbing Oakland Center
12:02AM 36.3831 -122.0503 139° Southeast 464 534 39,400 1,320 Climbing Oakland Center
12:03AM 36.2856 -121.9453 139° Southeast 465 535 40,700 780 Climbing Oakland Center
12:04AM 36.1883 -121.8389 139° Southeast 467 537 41,000 120 Climbing Oakland Center
12:05AM 36.0839 -121.7256 139° Southeast 468 539 41,000  Level Oakland Center
12:06AM 35.9853 -121.6203 139° Southeast 468 539 41,000  Level Oakland Center
12:07AM 35.8867 -121.5153 139° Southeast 469 540 41,000  Level Oakland Center
12:08AM 35.7872 -121.4114 140° Southeast 470 541 41,000  Level Oakland Center
12:09AM 35.6886 -121.3056 139° Southeast 470 541 41,000  Level Oakland Center
12:10AM 35.5906 -121.2011 139° Southeast 469 540 41,000  Level Oakland Center
12:11AM 35.4933 -121.0961 139° Southeast 468 539 41,000  Level Oakland Center
12:12AM 35.4175 -120.9650 125° Southeast 472 543 41,000  Level Oakland Center
12:13AM 35.3431 -120.8328 125° Southeast 474 545 41,000  Level Oakland Center
12:14AM 35.2681 -120.7011 125° Southeast 476 548 41,000  Level Oakland Center
12:15AM 35.1778 -120.5444 125° Southeast 478 550 41,000  Level Oakland Center
12:16AM 35.1103 -120.4242 124° Southeast 479 551 41,000  Level Los Angeles Center
12:17AM 35.0175 -120.2631 125° Southeast 480 552 41,000  Level Los Angeles Center
12:18AM 34.9403 -120.1289 125° Southeast 480 552 41,000  Level Los Angeles Center
12:19AM 34.8606 -119.9931 126° Southeast 474 545 41,000  Level Los Angeles Center
12:20AM 34.7703 -119.8361 125° Southeast 474 545 41,000  Level Los Angeles Center
12:21AM 34.6775 -119.6797 126° Southeast 476 548 41,000  Level Los Angeles Center
12:22AM 34.6028 -119.5506 125° Southeast 476 548 41,000  Level Los Angeles Center
12:23AM 34.5256 -119.4200 126° Southeast 477 549 41,000 -300 Level Los Angeles Center
12:24AM 34.4631 -119.3161 126° Southeast 477 549 40,400 -900 Descending Los Angeles Center
12:25AM 34.3717 -119.1611 126° Southeast 472 543 39,200 -1,080 Descending Los Angeles Center
12:26AM 34.2944 -119.0314 126° Southeast 475 547 38,300 -960 Descending Los Angeles Center
12:28AM 34.2169 -118.9047 126° Southeast 471 542 37,300 -1,020 Descending Los Angeles Center
12:29AM 34.1400 -118.7761 126° Southeast 472 543 36,300 -960 Descending Los Angeles Center
12:30AM 34.0625 -118.6464 126° Southeast 475 547 35,400 -840 Descending Los Angeles Center
12:31AM 33.9997 -118.5431 126° Southeast 477 549 34,600 -1,080 Descending Los Angeles Center
12:32AM 33.8833 -118.3661 128° Southeast 478 550 33,300 -1,140 Descending Los Angeles Center
12:33AM 33.8000 -118.2567 132° Southeast 483 556 32,400 -960 Descending Los Angeles Center
12:34AM 33.7089 -118.1444 134° Southeast 488 562 31,400 -1,680 Descending Los Angeles Center
12:35AM 33.6172 -118.0272 133° Southeast 484 557 29,000 -2,940 Descending Los Angeles Center
12:36AM 33.5142 -117.8969 133° Southeast 457 526 25,500 -2,940 Descending Los Angeles Center
12:37AM 33.4292 -117.7897 134° Southeast 447 514 23,100 -2,460 Descending Los Angeles Center
12:38AM 33.3478 -117.6864 133° Southeast 434 499 20,600 -2,520 Descending Los Angeles Center
12:39AM 33.2667 -117.5833 133° Southeast 409 471 17,900 -2,400 Descending Southern California TRACON
12:40AM 33.1833 -117.5167 146° Southeast 397 457 15,800 -2,280 Descending Southern California TRACON
12:41AM 33.0833 -117.4333 145° Southeast 367 422 13,400 -2,100 Descending Southern California TRACON
12:42AM 33.0000 -117.3667 146° Southeast 349 402 11,400 -1,560 Descending Southern California TRACON
12:43AM 32.9333 -117.3000 140° Southeast 316 364 10,300 -1,260 Descending Southern California TRACON
12:44AM 32.8500 -117.2500 153° Southeast 309 356 8,900 -960 Descending Southern California TRACON
12:45AM 32.8000 -117.1833 132° Southeast 276 318 8,400 -720 Descending Southern California TRACON
12:46AM 32.7833 -117.1000 103° East 255 293 7,500 -780 Descending Southern California TRACON
12:47AM 32.7667 -117.0333 107° East 222 255 6,900 -900 Descending Southern California TRACON
12:48AM 32.7500 -116.9500 103° East 219 252 5,700 -1,200 Descending Southern California TRACON
12:49AM 32.7167 -116.9167 140° Southeast 223 257 4,500 -1,140 Descending Southern California TRACON
12:50AM 32.7000 -116.9667 248° West 191 220 3,500 -1,020 Descending Southern California TRACON
12:51AM 32.7000 -117.0333 270° West 197 227 2,500 -900 Descending Southern California TRACON
12:52AM 32.7167 -117.1000 287° West 167 192 1,700 -840 Descending Southern California TRACON
12:53AM 32.7167 -117.1333 270° West 134 154 1,000 -780 Descending Southern California TRACON
12:54AM 32.7333 -117.1667 301° West 130 150 400 -660 Descending Southern California TRACON
12:54AM 32.7311 -117.1781 257° West 140 161 200 -780 Descending Los Angeles Center
12:56AM 32.7333 -117.1833 285° West  Level FlightAware Approximate
01:03AM 32.7336 -117.1897 285° West  Level Estimated